Time;durP1;ratioP1;P1;durP2;ratioP2;P2;SDS_P1;SDS_P2;PMS_P1;PMS_P2;Temp;Humidity;BMP_temperature;BMP_pressure;BME280_temperature;BME280_humidity;BME280_pressure;Samples;Min_cycle;Max_cycle;Signal;HPM_P1;HPM_P2
2023/11/24 00:01:43;;;;;;;4.63;3.00;;;7.00;84.30;;;;;;5006505;28;20081;-62
2023/11/24 00:04:09;;;;;;;3.45;3.00;;;7.00;84.40;;;;;;5006994;28;20529;-63
2023/11/24 00:06:35;;;;;;;3.53;3.05;;;7.00;84.50;;;;;;5006379;28;20037;-61
2023/11/24 00:09:01;;;;;;;4.78;3.10;;;7.00;84.50;;;;;;5006579;28;20084;-63
2023/11/24 00:11:26;;;;;;;2.92;2.65;;;7.00;85.30;;;;;;5004017;28;20045;-63
2023/11/24 00:13:52;;;;;;;3.13;2.65;;;7.00;84.40;;;;;;5006970;28;20034;-63
2023/11/24 00:16:18;;;;;;;2.97;2.50;;;7.10;84.50;;;;;;5006825;28;20054;-63
2023/11/24 00:18:45;;;;;;;3.22;2.60;;;7.10;84.50;;;;;;5005501;28;20069;-62
2023/11/24 00:21:10;;;;;;;3.53;2.35;;;7.10;84.50;;;;;;5006628;28;20346;-63
2023/11/24 00:23:37;;;;;;;2.33;2.13;;;7.10;84.50;;;;;;5006272;28;20026;-63
2023/11/24 00:26:05;;;;;;;3.30;2.45;;;7.20;84.60;;;;;;5006781;28;20095;-63
2023/11/24 00:28:32;;;;;;;2.95;2.00;;;7.20;84.60;;;;;;5005908;28;20493;-62
2023/11/24 00:30:59;;;;;;;2.67;2.35;;;7.30;84.60;;;;;;5005299;28;20137;-63
2023/11/24 00:33:26;;;;;;;2.20;1.98;;;7.30;84.60;;;;;;5004827;28;20042;-63
2023/11/24 00:35:52;;;;;;;4.75;2.20;;;7.30;84.50;;;;;;5005945;28;20509;-63
2023/11/24 00:38:18;;;;;;;2.75;1.80;;;7.40;84.50;;;;;;5005190;28;20097;-63
2023/11/24 00:40:43;;;;;;;1.88;1.70;;;7.40;84.60;;;;;;5004838;28;20034;-62
2023/11/24 00:43:09;;;;;;;2.17;1.70;;;7.40;84.70;;;;;;5006255;28;20030;-63
2023/11/24 00:45:34;;;;;;;2.63;1.70;;;7.40;84.70;;;;;;5006841;28;20088;-63
2023/11/24 00:48:01;;;;;;;1.60;1.50;;;7.50;84.80;;;;;;5005829;28;20046;-63
2023/11/24 00:50:26;;;;;;;3.72;1.90;;;7.50;84.70;;;;;;5005537;28;20037;-64
2023/11/24 00:52:52;;;;;;;1.83;1.65;;;7.50;84.60;;;;;;5006548;28;20040;-63
2023/11/24 00:55:17;;;;;;;1.90;1.77;;;7.50;84.50;;;;;;5006361;28;20510;-63
2023/11/24 00:57:43;;;;;;;2.08;1.80;;;7.60;84.50;;;;;;5005580;28;20056;-63
2023/11/24 01:00:09;;;;;;;2.90;1.80;;;7.60;84.50;;;;;;5005961;28;20038;-63
2023/11/24 01:02:37;;;;;;;2.25;2.05;;;7.60;84.50;;;;;;5005053;28;20034;-63
2023/11/24 01:05:03;;;;;;;3.08;1.90;;;7.60;84.40;;;;;;5005760;28;20041;-63
2023/11/24 01:07:29;;;;;;;2.88;1.48;;;7.60;84.50;;;;;;5004876;28;20041;-63
2023/11/24 01:09:54;;;;;;;1.83;1.73;;;7.60;84.30;;;;;;5005594;28;20037;-63
2023/11/24 01:12:20;;;;;;;1.95;1.80;;;7.60;84.50;;;;;;5002231;28;20437;-63
2023/11/24 01:14:45;;;;;;;2.78;1.67;;;7.70;84.50;;;;;;5004246;28;20038;-63
2023/11/24 01:17:11;;;;;;;1.83;1.73;;;7.70;84.40;;;;;;5005250;28;20041;-63
2023/11/24 01:19:37;;;;;;;2.08;1.80;;;7.70;84.50;;;;;;5004869;28;20048;-63
2023/11/24 01:22:03;;;;;;;3.47;1.90;;;7.70;84.50;;;;;;5005563;28;20501;-63
2023/11/24 01:24:29;;;;;;;3.17;2.00;;;7.70;84.30;;;;;;5004214;28;20068;-63
2023/11/24 01:26:55;;;;;;;2.28;2.08;;;7.70;84.30;;;;;;5005047;28;20469;-63
2023/11/24 01:29:21;;;;;;;2.10;1.90;;;7.70;84.30;;;;;;5005040;28;20034;-62
2023/11/24 01:31:46;;;;;;;3.20;2.10;;;7.80;84.40;;;;;;5004364;28;20117;-63
2023/11/24 01:34:14;;;;;;;2.13;1.80;;;7.70;84.30;;;;;;5008285;28;20042;-63
2023/11/24 01:36:42;;;;;;;2.40;2.10;;;7.70;84.30;;;;;;5008334;28;20110;-63
2023/11/24 01:39:10;;;;;;;2.65;2.10;;;7.80;84.30;;;;;;5007582;28;20253;-63
2023/11/24 01:41:35;;;;;;;3.35;2.08;;;7.70;84.20;;;;;;5008246;28;20042;-63
2023/11/24 01:44:02;;;;;;;2.45;1.98;;;7.80;84.30;;;;;;5007987;28;20053;-62
2023/11/24 01:46:29;;;;;;;2.63;2.42;;;7.80;84.30;;;;;;5007764;28;20046;-63
2023/11/24 01:48:56;;;;;;;2.55;2.22;;;7.70;84.30;;;;;;5008172;28;20149;-63
2023/11/24 01:51:23;;;;;;;2.30;2.10;;;7.80;84.40;;;;;;5008624;28;20030;-63
2023/11/24 01:53:50;;;;;;;3.03;2.20;;;7.70;84.50;;;;;;5008203;28;20131;-61
2023/11/24 01:56:17;;;;;;;2.35;2.15;;;7.80;84.60;;;;;;5008880;28;20037;-61
2023/11/24 01:58:42;;;;;;;2.25;2.05;;;7.80;84.60;;;;;;5007241;28;20033;-63
2023/11/24 02:01:08;;;;;;;4.28;2.80;;;7.80;84.80;;;;;;5010303;28;20018;-62
2023/11/24 02:03:34;;;;;;;3.00;2.45;;;7.80;84.70;;;;;;5007153;28;20662;-63
2023/11/24 02:06:01;;;;;;;3.72;2.30;;;7.80;84.80;;;;;;5008713;28;20041;-63
2023/11/24 02:08:28;;;;;;;2.55;2.25;;;7.80;84.80;;;;;;5007403;28;20034;-63
2023/11/24 02:10:53;;;;;;;2.95;2.60;;;7.80;85.70;;;;;;5004244;28;20113;-61
2023/11/24 02:13:26;;;;;;;4.28;2.58;;;7.80;85.00;;;;;;5000894;28;20600;-62
2023/11/24 02:15:53;;;;;;;2.70;2.47;;;7.80;85.30;;;;;;5000477;28;20061;-63
2023/11/24 02:18:21;;;;;;;2.50;1.92;;;7.80;85.20;;;;;;5007440;28;20034;-62
2023/11/24 02:20:47;;;;;;;2.72;2.08;;;7.80;85.20;;;;;;5006890;28;20053;-62
2023/11/24 02:23:16;;;;;;;2.95;2.20;;;7.80;85.20;;;;;;5008432;28;20030;-63
2023/11/24 02:25:41;;;;;;;2.20;2.00;;;7.80;85.30;;;;;;5007720;28;20050;-63
2023/11/24 02:28:07;;;;;;;3.13;2.10;;;7.90;85.50;;;;;;5007603;28;20103;-63
2023/11/24 02:30:33;;;;;;;4.13;2.08;;;7.80;85.40;;;;;;5007344;28;20062;-63
2023/11/24 02:32:58;;;;;;;3.90;1.90;;;7.90;85.50;;;;;;5007367;28;20038;-62
2023/11/24 02:35:26;;;;;;;1.90;1.80;;;7.90;85.60;;;;;;5008241;28;20042;-62
2023/11/24 02:37:51;;;;;;;2.30;1.98;;;7.90;85.50;;;;;;5006814;28;20030;-63
2023/11/24 02:40:17;;;;;;;2.38;1.80;;;7.90;85.60;;;;;;5005576;28;20053;-63
2023/11/24 02:42:43;;;;;;;2.90;2.05;;;8.00;85.80;;;;;;5006733;28;20124;-63
2023/11/24 02:45:10;;;;;;;1.92;1.83;;;8.00;85.70;;;;;;5006801;28;20117;-64
2023/11/24 02:47:36;;;;;;;2.20;2.00;;;8.00;85.70;;;;;;5007772;28;20038;-63
2023/11/24 02:50:02;;;;;;;4.93;2.10;;;8.00;85.60;;;;;;5006903;28;20407;-63
2023/11/24 02:52:28;;;;;;;2.33;1.92;;;8.00;85.70;;;;;;5007143;28;20480;-64
2023/11/24 02:54:54;;;;;;;3.90;2.08;;;8.10;85.90;;;;;;5007711;28;20066;-63
2023/11/24 02:57:20;;;;;;;2.47;2.10;;;8.10;85.90;;;;;;5007152;28;20034;-63
2023/11/24 02:59:45;;;;;;;2.47;1.80;;;8.10;85.90;;;;;;5007200;28;20042;-63
2023/11/24 03:02:11;;;;;;;3.50;1.88;;;8.20;85.90;;;;;;5008138;28;20488;-62
2023/11/24 03:04:37;;;;;;;2.03;1.83;;;8.20;85.90;;;;;;5006286;28;20358;-62
2023/11/24 03:07:04;;;;;;;3.25;1.83;;;8.20;86.00;;;;;;5007418;28;20333;-62
2023/11/24 03:09:31;;;;;;;1.83;1.73;;;8.20;86.20;;;;;;5006511;28;20061;-62
2023/11/24 03:11:57;;;;;;;1.88;1.75;;;8.20;86.30;;;;;;5005758;28;20045;-62
2023/11/24 03:14:23;;;;;;;2.00;1.80;;;8.20;86.40;;;;;;5007727;28;20084;-62
2023/11/24 03:16:49;;;;;;;2.10;1.67;;;8.20;86.40;;;;;;5006316;28;20038;-63
2023/11/24 03:19:16;;;;;;;3.25;1.60;;;8.20;86.40;;;;;;5007240;28;20466;-63
2023/11/24 03:21:43;;;;;;;2.10;1.90;;;8.20;86.20;;;;;;5006856;28;20041;-63
2023/11/24 03:24:09;;;;;;;2.00;1.90;;;8.20;86.40;;;;;;5006836;28;20038;-63
2023/11/24 03:26:35;;;;;;;2.10;1.70;;;8.20;86.40;;;;;;5006666;28;20059;-62
2023/11/24 03:29:00;;;;;;;1.73;1.63;;;8.20;86.50;;;;;;5006206;28;20065;-63
2023/11/24 03:31:26;;;;;;;1.80;1.65;;;8.10;86.40;;;;;;5006989;28;20073;-61
2023/11/24 03:33:51;;;;;;;1.70;1.52;;;8.20;86.40;;;;;;5006987;28;20428;-63
2023/11/24 03:36:17;;;;;;;1.65;1.48;;;8.10;86.30;;;;;;5006945;28;20041;-63
2023/11/24 03:38:43;;;;;;;1.90;1.70;;;8.10;86.20;;;;;;5004366;28;20053;-63
2023/11/24 03:41:10;;;;;;;1.58;1.48;;;8.10;86.30;;;;;;5006431;28;20041;-61
2023/11/24 03:43:35;;;;;;;3.03;1.67;;;8.10;86.40;;;;;;5006334;28;20034;-62
2023/11/24 03:46:01;;;;;;;3.63;1.70;;;8.10;86.40;;;;;;5005933;28;20466;-63
2023/11/24 03:48:30;;;;;;;2.85;1.60;;;8.10;86.50;;;;;;5006507;28;20037;-63
2023/11/24 03:50:55;;;;;;;1.73;1.63;;;8.10;86.40;;;;;;5006618;28;20041;-62
2023/11/24 03:53:21;;;;;;;1.42;1.33;;;8.10;86.40;;;;;;5007022;28;20421;-63
2023/11/24 03:55:47;;;;;;;1.73;1.55;;;8.10;86.60;;;;;;5006357;28;20076;-64
2023/11/24 03:58:13;;;;;;;2.03;1.65;;;8.00;86.60;;;;;;5006051;28;20113;-63
2023/11/24 04:00:39;;;;;;;2.20;1.58;;;8.00;86.70;;;;;;5006267;28;20426;-63
2023/11/24 04:03:05;;;;;;;1.85;1.63;;;8.00;86.80;;;;;;5006542;28;20056;-63
2023/11/24 04:05:31;;;;;;;2.83;1.60;;;8.00;87.00;;;;;;5006917;28;20064;-63
2023/11/24 04:07:57;;;;;;;2.33;1.40;;;8.00;87.10;;;;;;5006081;28;20057;-63
2023/11/24 04:10:23;;;;;;;2.15;1.50;;;8.00;87.10;;;;;;5004126;28;20844;-63
2023/11/24 04:12:49;;;;;;;1.50;1.40;;;8.00;88.10;;;;;;5002776;28;20042;-63
2023/11/24 04:15:15;;;;;;;1.52;1.30;;;8.00;87.40;;;;;;4994044;28;20121;-63
2023/11/24 04:17:40;;;;;;;1.48;1.38;;;8.00;87.40;;;;;;5006657;28;20033;-61
2023/11/24 04:20:08;;;;;;;1.63;1.30;;;8.00;87.50;;;;;;5006429;28;20045;-62
2023/11/24 04:22:34;;;;;;;2.17;1.50;;;8.00;87.60;;;;;;5006014;28;20044;-60
2023/11/24 04:25:00;;;;;;;2.10;1.48;;;8.00;87.60;;;;;;5006301;28;20506;-63
2023/11/24 04:27:26;;;;;;;1.27;1.17;;;8.00;87.60;;;;;;5006437;28;20045;-63
2023/11/24 04:29:51;;;;;;;1.63;1.40;;;8.00;87.80;;;;;;5006038;28;20057;-63
2023/11/24 04:32:17;;;;;;;2.25;1.42;;;8.00;87.90;;;;;;5006744;28;20026;-63
2023/11/24 04:34:43;;;;;;;1.60;1.50;;;8.00;88.10;;;;;;5005823;28;20059;-64
2023/11/24 04:37:09;;;;;;;1.73;1.30;;;8.00;88.00;;;;;;5005709;28;20061;-63
2023/11/24 04:39:35;;;;;;;1.60;1.50;;;8.00;88.00;;;;;;5005342;28;20038;-64
2023/11/24 04:42:00;;;;;;;2.83;1.40;;;8.00;88.00;;;;;;5004921;28;20038;-64
2023/11/24 04:44:26;;;;;;;1.58;1.40;;;8.00;88.20;;;;;;5006007;28;20053;-63
2023/11/24 04:46:51;;;;;;;1.83;1.40;;;8.00;88.10;;;;;;5005729;28;20490;-62
2023/11/24 04:49:17;;;;;;;2.13;1.50;;;8.00;88.40;;;;;;5005737;28;20033;-63
2023/11/24 04:51:43;;;;;;;2.58;1.70;;;8.00;88.30;;;;;;5005762;28;20061;-63
2023/11/24 04:54:09;;;;;;;2.90;1.30;;;8.00;88.50;;;;;;5006058;28;20105;-63
2023/11/24 04:56:34;;;;;;;2.03;1.52;;;8.00;88.30;;;;;;5005567;28;20041;-63
2023/11/24 04:59:00;;;;;;;1.60;1.50;;;8.00;88.50;;;;;;5005634;28;20572;-63
2023/11/24 05:01:27;;;;;;;1.92;1.75;;;8.00;88.50;;;;;;5005737;28;20042;-64
2023/11/24 05:03:55;;;;;;;1.70;1.60;;;8.00;88.50;;;;;;5005403;28;20038;-63
2023/11/24 05:06:21;;;;;;;1.75;1.65;;;8.00;88.60;;;;;;5004905;28;20553;-63
2023/11/24 05:08:47;;;;;;;2.00;1.80;;;8.00;88.70;;;;;;5002872;28;20048;-63
2023/11/24 05:11:13;;;;;;;1.63;1.50;;;8.00;88.80;;;;;;4985307;28;20076;-64
2023/11/24 05:13:39;;;;;;;1.77;1.67;;;8.00;88.90;;;;;;4995907;28;20030;-63
2023/11/24 05:16:05;;;;;;;1.92;1.80;;;8.00;89.00;;;;;;4999746;28;20026;-63
2023/11/24 05:18:31;;;;;;;2.55;1.98;;;8.00;89.00;;;;;;5005047;28;20402;-64
2023/11/24 05:20:56;;;;;;;2.30;1.70;;;8.10;89.20;;;;;;5005454;28;20069;-63
2023/11/24 05:23:22;;;;;;;2.17;1.85;;;8.00;89.20;;;;;;5005488;28;20026;-63
2023/11/24 05:25:48;;;;;;;2.35;1.95;;;8.00;89.30;;;;;;5005233;28;20126;-63
2023/11/24 05:28:13;;;;;;;2.15;1.90;;;8.10;89.30;;;;;;5004545;28;20109;-64
2023/11/24 05:30:39;;;;;;;2.47;2.28;;;8.10;89.30;;;;;;5005503;28;20080;-64
2023/11/24 05:33:05;;;;;;;2.30;2.10;;;8.10;89.30;;;;;;5005597;28;20030;-63
2023/11/24 05:35:31;;;;;;;2.95;1.92;;;8.10;89.40;;;;;;5006372;28;20500;-64
2023/11/24 05:37:58;;;;;;;2.55;2.15;;;8.10;89.30;;;;;;5005700;28;20061;-63
2023/11/24 05:40:23;;;;;;;2.58;2.10;;;8.10;89.40;;;;;;5003281;28;20058;-62
2023/11/24 05:42:49;;;;;;;4.38;1.95;;;8.10;89.50;;;;;;5005710;28;20038;-64
2023/11/24 05:45:15;;;;;;;4.50;2.20;;;8.20;89.50;;;;;;5005680;28;20093;-64
2023/11/24 05:47:41;;;;;;;2.15;1.95;;;8.20;89.50;;;;;;5005544;28;20401;-64
2023/11/24 05:50:07;;;;;;;2.45;2.22;;;8.20;89.50;;;;;;5005327;28;20038;-64
2023/11/24 05:52:33;;;;;;;2.78;1.98;;;8.20;89.50;;;;;;5004590;28;20049;-64
2023/11/24 05:55:00;;;;;;;2.40;2.20;;;8.20;89.50;;;;;;5005816;28;20026;-64
2023/11/24 05:57:27;;;;;;;2.22;2.03;;;8.20;89.40;;;;;;5005253;28;20057;-63
2023/11/24 05:59:52;;;;;;;2.65;2.38;;;8.20;89.40;;;;;;5005014;28;20122;-64
2023/11/24 06:02:18;;;;;;;2.40;2.20;;;8.20;89.40;;;;;;5005144;28;20113;-64
2023/11/24 06:04:44;;;;;;;3.35;2.20;;;8.20;89.40;;;;;;5004818;28;20045;-64
2023/11/24 06:07:09;;;;;;;2.28;1.90;;;8.20;89.30;;;;;;5005090;28;20076;-64
2023/11/24 06:09:35;;;;;;;3.30;2.33;;;8.10;89.20;;;;;;5004356;28;20038;-64
2023/11/24 06:12:01;;;;;;;3.35;2.30;;;8.20;89.30;;;;;;5003893;28;20532;-64
2023/11/24 06:14:27;;;;;;;2.40;2.10;;;8.10;89.20;;;;;;5004786;28;20058;-64
2023/11/24 06:16:52;;;;;;;1.98;1.80;;;8.10;89.20;;;;;;5004857;28;20061;-64
2023/11/24 06:19:18;;;;;;;2.05;1.85;;;8.20;89.30;;;;;;5005189;28;20030;-64
2023/11/24 06:21:44;;;;;;;4.18;2.15;;;8.20;89.30;;;;;;5008711;28;20472;-64
2023/11/24 06:24:09;;;;;;;2.35;2.13;;;8.10;89.30;;;;;;5008956;28;20095;-61
2023/11/24 06:26:35;;;;;;;2.70;2.08;;;8.10;89.40;;;;;;5007719;28;20081;-63
2023/11/24 06:29:01;;;;;;;2.78;2.20;;;8.20;89.40;;;;;;5007437;28;20445;-64
2023/11/24 06:31:27;;;;;;;2.25;1.88;;;8.10;89.40;;;;;;5008500;28;20347;-64
2023/11/24 06:33:53;;;;;;;2.33;2.13;;;8.20;89.50;;;;;;5008157;28;20060;-64
2023/11/24 06:36:19;;;;;;;4.03;2.38;;;8.20;89.50;;;;;;5008989;28;20038;-63
2023/11/24 06:38:44;;;;;;;2.47;2.22;;;8.20;89.40;;;;;;5006537;28;20044;-63
2023/11/24 06:41:10;;;;;;;3.05;2.03;;;8.20;89.50;;;;;;5008838;28;20397;-63
2023/11/24 06:43:35;;;;;;;2.72;2.33;;;8.20;89.50;;;;;;5008619;28;20026;-63
2023/11/24 06:46:02;;;;;;;2.50;2.20;;;8.20;89.50;;;;;;5008337;28;20026;-63
2023/11/24 06:48:28;;;;;;;2.40;2.20;;;8.20;89.50;;;;;;5007512;28;20030;-64
2023/11/24 06:50:53;;;;;;;2.50;2.00;;;8.20;89.40;;;;;;5007919;28;20088;-63
2023/11/24 06:53:19;;;;;;;2.28;2.08;;;8.20;89.60;;;;;;5008335;28;20044;-63
2023/11/24 06:55:44;;;;;;;2.70;2.50;;;8.20;89.40;;;;;;5008153;28;20524;-64
2023/11/24 06:58:10;;;;;;;2.30;2.03;;;8.30;89.70;;;;;;5007723;28;20476;-63
2023/11/24 07:00:36;;;;;;;2.58;2.38;;;8.30;89.40;;;;;;4989728;28;20042;-64
2023/11/24 07:03:02;;;;;;;4.38;2.40;;;8.30;89.50;;;;;;5007802;28;20085;-63
2023/11/24 07:05:28;;;;;;;2.13;1.92;;;8.30;89.50;;;;;;4996420;28;20030;-64
2023/11/24 07:07:54;;;;;;;3.78;2.50;;;8.30;89.40;;;;;;4992317;28;20045;-64
2023/11/24 07:10:22;;;;;;;3.65;2.50;;;8.30;89.40;;;;;;4993559;28;20382;-64
2023/11/24 07:12:48;;;;;;;5.50;2.22;;;8.30;89.40;;;;;;4991411;28;20044;-64
2023/11/24 07:15:14;;;;;;;3.88;2.30;;;8.40;89.50;;;;;;4999253;28;20034;-63
2023/11/24 07:17:39;;;;;;;3.28;2.42;;;8.40;89.40;;;;;;5001140;28;20373;-63
2023/11/24 07:20:06;;;;;;;2.70;2.50;;;8.40;89.50;;;;;;4976812;28;20034;-64
2023/11/24 07:22:33;;;;;;;4.22;2.28;;;8.40;89.50;;;;;;4996931;28;20034;-64
2023/11/24 07:24:59;;;;;;;2.70;2.20;;;8.40;89.50;;;;;;4998932;28;20161;-63
2023/11/24 07:27:25;;;;;;;2.72;2.40;;;8.40;89.30;;;;;;4998474;28;20105;-64
2023/11/24 07:29:50;;;;;;;3.15;2.50;;;8.40;89.30;;;;;;5001370;28;20501;-64
2023/11/24 07:32:16;;;;;;;3.45;2.50;;;8.50;89.50;;;;;;5000590;28;20530;-65
2023/11/24 07:34:43;;;;;;;3.63;2.75;;;8.50;89.40;;;;;;5001690;28;20034;-64
2023/11/24 07:37:08;;;;;;;2.63;2.40;;;8.40;89.40;;;;;;5002567;28;20081;-64
2023/11/24 07:39:34;;;;;;;2.78;2.30;;;8.50;89.30;;;;;;4996416;28;20042;-64
2023/11/24 07:42:00;;;;;;;2.47;2.15;;;8.50;89.30;;;;;;4993779;28;20100;-64
2023/11/24 07:44:31;;;;;;;2.50;2.22;;;8.50;89.30;;;;;;5001293;28;20059;-64
2023/11/24 07:46:57;;;;;;;3.33;2.28;;;8.60;89.40;;;;;;4997844;28;20165;-64
2023/11/24 07:49:23;;;;;;;5.68;2.38;;;8.50;89.50;;;;;;4999156;28;20037;-64
2023/11/24 07:51:49;;;;;;;2.78;2.20;;;8.60;89.60;;;;;;5001417;28;20037;-64
2023/11/24 07:54:14;;;;;;;4.10;2.40;;;8.60;89.40;;;;;;5001959;28;20065;-65
2023/11/24 07:56:41;;;;;;;3.38;2.13;;;8.60;89.50;;;;;;5001578;28;20409;-64
2023/11/24 07:59:06;;;;;;;2.15;1.90;;;8.60;89.60;;;;;;5000721;28;20045;-64
2023/11/24 08:01:32;;;;;;;2.22;2.00;;;8.60;89.60;;;;;;5001187;28;20034;-64
2023/11/24 08:03:57;;;;;;;2.30;2.10;;;8.60;89.70;;;;;;5001084;28;20092;-64
2023/11/24 08:06:24;;;;;;;5.43;2.50;;;8.60;89.70;;;;;;4985106;28;20042;-65
2023/11/24 08:08:50;;;;;;;2.83;2.30;;;8.60;89.80;;;;;;5001606;28;20577;-64
2023/11/24 08:11:15;;;;;;;3.42;2.20;;;8.60;90.00;;;;;;5001970;28;20030;-64
2023/11/24 08:13:42;;;;;;;2.75;2.22;;;8.60;89.90;;;;;;5001475;28;20568;-64
2023/11/24 08:16:07;;;;;;;2.58;2.17;;;8.60;90.00;;;;;;5002387;28;20061;-65
2023/11/24 08:18:35;;;;;;;4.45;2.60;;;8.60;89.90;;;;;;4981615;28;20517;-64
2023/11/24 08:21:02;;;;;;;3.47;2.70;;;8.70;90.00;;;;;;4999057;28;20034;-64
2023/11/24 08:23:27;;;;;;;3.28;2.50;;;8.70;90.00;;;;;;5000758;28;20042;-63
2023/11/24 08:25:53;;;;;;;3.28;2.70;;;8.70;90.10;;;;;;4989748;28;20431;-65
2023/11/24 08:28:19;;;;;;;4.03;3.03;;;8.70;90.10;;;;;;4981239;28;20033;-65
2023/11/24 08:30:44;;;;;;;13.15;8.25;;;8.70;90.20;;;;;;4999285;28;20525;-65
2023/11/24 08:33:11;;;;;;;6.10;4.45;;;8.60;90.10;;;;;;4997932;28;20030;-65
2023/11/24 08:35:38;;;;;;;3.92;3.30;;;8.70;90.20;;;;;;4997732;28;20176;-64
2023/11/24 08:38:04;;;;;;;4.65;3.10;;;8.60;90.20;;;;;;4994095;28;20038;-65
2023/11/24 08:40:29;;;;;;;3.47;2.83;;;8.60;90.20;;;;;;4999502;28;20559;-65
2023/11/24 08:42:57;;;;;;;3.17;2.75;;;8.70;90.20;;;;;;4998046;28;20065;-66
2023/11/24 08:45:23;;;;;;;3.05;2.58;;;8.70;90.30;;;;;;4998376;28;20037;-65
2023/11/24 08:47:49;;;;;;;3.10;2.63;;;8.70;90.30;;;;;;4999387;28;20045;-66
2023/11/24 08:50:16;;;;;;;4.15;2.97;;;8.70;90.40;;;;;;4998322;28;20270;-65
2023/11/24 08:52:42;;;;;;;2.75;2.47;;;8.70;90.40;;;;;;4998751;28;20046;-65
2023/11/24 08:55:09;;;;;;;3.08;2.65;;;8.70;90.60;;;;;;5000309;28;20062;-65
2023/11/24 08:57:35;;;;;;;3.10;2.30;;;8.60;90.60;;;;;;4998679;28;20057;-64
2023/11/24 09:00:01;;;;;;;3.03;2.53;;;8.60;90.90;;;;;;4999669;28;20112;-66
2023/11/24 09:02:28;;;;;;;35.25;15.68;;;8.60;90.60;;;;;;4996781;28;20049;-66
2023/11/24 09:04:54;;;;;;;3.92;2.47;;;8.60;90.60;;;;;;5003895;28;20041;-65
2023/11/24 09:07:20;;;;;;;1.38;1.27;;;8.60;90.50;;;;;;4998557;28;20834;-66
2023/11/24 09:09:46;;;;;;;1.67;1.02;;;8.60;89.70;;;;;;5000787;28;20038;-65
2023/11/24 09:12:12;;;;;;;2.35;2.10;;;8.50;89.40;;;;;;5000846;28;20061;-65
2023/11/24 09:14:40;;;;;;;3.50;2.70;;;8.40;90.10;;;;;;4984657;28;20030;-65
2023/11/24 09:17:06;;;;;;;1.10;1.00;;;8.30;90.20;;;;;;5002411;28;20034;-66
2023/11/24 09:19:33;;;;;;;0.80;0.60;;;8.30;90.50;;;;;;5002133;28;20065;-65
2023/11/24 09:22:00;;;;;;;0.70;0.40;;;8.20;90.20;;;;;;5001735;28;20034;-65
2023/11/24 09:24:26;;;;;;;0.45;0.40;;;8.20;90.00;;;;;;5000937;28;20042;-66
2023/11/24 09:26:53;;;;;;;0.70;0.70;;;8.10;90.00;;;;;;5002131;28;20042;-66
2023/11/24 09:29:19;;;;;;;1.80;0.68;;;8.00;90.10;;;;;;4994818;28;20045;-64
2023/11/24 09:31:45;;;;;;;0.43;0.43;;;8.00;90.30;;;;;;5002113;28;20457;-65
2023/11/24 09:34:11;;;;;;;1.63;0.70;;;8.00;90.30;;;;;;5003388;28;20442;-65
2023/11/24 09:36:41;;;;;;;1.00;0.57;;;7.90;90.50;;;;;;5002115;28;20509;-64
2023/11/24 09:39:07;;;;;;;3.22;1.50;;;7.90;90.40;;;;;;4999121;28;20156;-63
2023/11/24 09:41:39;;;;;;;1.67;1.15;;;7.90;90.50;;;;;;4999698;28;20128;-64
2023/11/24 09:44:15;;;;;;;4.25;0.77;;;7.90;90.60;;;;;;4997264;28;20047;-61
2023/11/24 09:46:43;;;;;;;2.75;0.88;;;7.90;90.90;;;;;;4998080;28;20030;-62
2023/11/24 09:49:09;;;;;;;1.75;0.77;;;7.90;90.80;;;;;;5000255;28;20088;-64
2023/11/24 09:51:38;;;;;;;1.05;0.50;;;7.90;91.00;;;;;;5003826;28;20061;-64
2023/11/24 09:54:06;;;;;;;0.40;0.40;;;7.90;91.10;;;;;;5003998;28;20038;-64
2023/11/24 09:56:32;;;;;;;1.30;0.50;;;7.90;91.20;;;;;;5006390;28;20496;-64
2023/11/24 09:58:57;;;;;;;8.88;6.50;;;7.90;91.30;;;;;;5006452;28;20418;-64
2023/11/24 10:01:23;;;;;;;2.65;1.38;;;7.90;91.30;;;;;;5005929;28;20478;-64
2023/11/24 10:03:53;;;;;;;0.95;0.63;;;8.00;91.40;;;;;;5006294;28;20038;-64
2023/11/24 10:06:19;;;;;;;1.02;0.70;;;7.90;91.50;;;;;;5007014;28;20580;-63
2023/11/24 10:08:46;;;;;;;1.77;1.02;;;8.00;91.40;;;;;;5005958;28;20037;-64
2023/11/24 10:11:17;;;;;;;3.30;0.98;;;8.00;91.30;;;;;;5003971;28;20052;-63
2023/11/24 10:13:45;;;;;;;6.25;0.70;;;8.00;91.30;;;;;;5004903;28;20498;-64
2023/11/24 10:16:12;;;;;;;2.55;0.82;;;8.00;91.40;;;;;;5006322;28;20517;-63
2023/11/24 10:18:38;;;;;;;4.15;1.40;;;8.00;91.30;;;;;;5004545;28;20125;-64
2023/11/24 10:21:06;;;;;;;4.60;3.05;;;8.00;91.20;;;;;;5005348;28;20420;-63
2023/11/24 10:23:33;;;;;;;5.55;3.15;;;8.00;91.20;;;;;;5006621;28;20476;-62
2023/11/24 10:25:59;;;;;;;3.97;2.53;;;8.00;91.20;;;;;;5005212;28;20030;-64
2023/11/24 10:28:25;;;;;;;2.70;1.33;;;8.00;91.20;;;;;;5004586;28;20065;-62
2023/11/24 10:30:52;;;;;;;3.15;1.20;;;8.00;91.20;;;;;;5004893;28;20093;-63
2023/11/24 10:33:20;;;;;;;1.73;0.98;;;8.00;91.20;;;;;;5005565;28;20121;-63
2023/11/24 10:35:47;;;;;;;2.92;0.90;;;8.10;91.40;;;;;;5003580;28;20262;-64
2023/11/24 10:38:21;;;;;;;1.20;0.75;;;8.10;91.40;;;;;;5003926;28;20041;-63
2023/11/24 10:40:50;;;;;;;2.45;0.80;;;8.10;91.50;;;;;;5004263;28;20065;-62
2023/11/24 10:43:21;;;;;;;28.20;14.98;;;8.10;91.40;;;;;;5003761;28;20070;-63
2023/11/24 10:45:51;;;;;;;22.33;12.93;;;8.10;91.40;;;;;;5003720;28;20037;-64
2023/11/24 10:48:21;;;;;;;23.75;14.30;;;8.20;91.40;;;;;;5004595;28;20529;-63
2023/11/24 10:50:59;;;;;;;15.30;10.10;;;8.20;91.30;;;;;;5004204;28;20069;-63
2023/11/24 10:53:34;;;;;;;2.47;2.05;;;8.30;91.30;;;;;;5006467;28;20030;-64
2023/11/24 10:56:03;;;;;;;1.92;1.20;;;8.30;91.20;;;;;;5004994;28;20401;-63
2023/11/24 10:58:29;;;;;;;17.30;11.00;;;8.30;91.20;;;;;;5002825;28;20034;-64
2023/11/24 11:00:55;;;;;;;8.23;6.10;;;8.30;91.20;;;;;;5006281;28;20042;-64
2023/11/24 11:03:21;;;;;;;3.25;1.70;;;8.30;91.20;;;;;;5007418;28;20516;-64
2023/11/24 11:05:59;;;;;;;0.98;0.80;;;8.40;91.30;;;;;;5007882;28;20052;-64
2023/11/24 11:08:34;;;;;;;1.17;0.82;;;8.30;91.20;;;;;;5007130;28;20045;-64
2023/11/24 11:11:06;;;;;;;0.80;0.50;;;8.40;91.20;;;;;;5007045;28;20079;-63
2023/11/24 11:13:34;;;;;;;1.20;0.90;;;8.40;91.10;;;;;;5008743;28;20041;-62
2023/11/24 11:16:04;;;;;;;1.98;0.80;;;8.40;90.90;;;;;;5008663;28;20044;-63
2023/11/24 11:18:32;;;;;;;3.92;0.95;;;8.40;90.70;;;;;;5007814;28;20120;-62
2023/11/24 11:20:58;;;;;;;2.58;0.90;;;8.40;90.70;;;;;;5007830;28;20040;-63
2023/11/24 11:23:26;;;;;;;2.50;0.90;;;8.40;90.40;;;;;;5008952;28;20380;-63
2023/11/24 11:25:53;;;;;;;1.55;0.90;;;8.40;90.30;;;;;;5008281;28;20042;-63
2023/11/24 11:28:19;;;;;;;2.33;1.08;;;8.40;90.30;;;;;;5007823;28;20037;-63
2023/11/24 11:30:49;;;;;;;3.00;1.02;;;8.30;90.20;;;;;;5001408;28;20046;-63
2023/11/24 11:33:19;;;;;;;1.83;0.80;;;8.30;90.20;;;;;;5007387;28;20311;-63
2023/11/24 11:35:45;;;;;;;2.58;1.00;;;8.30;90.20;;;;;;5007487;28;20038;-63
2023/11/24 11:38:13;;;;;;;2.70;1.10;;;8.30;90.10;;;;;;5008076;28;20034;-63
2023/11/24 11:40:44;;;;;;;2.63;0.90;;;8.30;90.10;;;;;;5006803;28;20037;-62
2023/11/24 11:43:15;;;;;;;2.60;1.05;;;8.20;90.00;;;;;;5007996;28;20030;-64
2023/11/24 11:45:48;;;;;;;2.83;1.10;;;8.20;90.00;;;;;;5008280;28;20104;-64
2023/11/24 11:48:14;;;;;;;4.18;1.00;;;8.20;90.40;;;;;;5006069;28;20576;-63
2023/11/24 11:50:55;;;;;;;4.70;1.10;;;8.20;90.00;;;;;;5007064;28;20072;-63
2023/11/24 11:53:25;;;;;;;6.10;1.10;;;8.10;90.10;;;;;;5008420;28;20037;-62
2023/11/24 11:55:53;;;;;;;3.80;1.13;;;8.10;90.20;;;;;;5008793;28;20080;-64
2023/11/24 11:58:19;;;;;;;4.10;1.23;;;8.10;90.80;;;;;;5007759;28;20041;-63
2023/11/24 12:00:48;;;;;;;4.63;1.60;;;8.10;90.50;;;;;;5006817;28;20406;-63
2023/11/24 12:03:18;;;;;;;5.32;1.60;;;8.10;90.00;;;;;;5008713;28;20092;-63
2023/11/24 12:05:47;;;;;;;6.90;1.67;;;8.10;89.50;;;;;;5008087;28;20354;-63
2023/11/24 12:08:15;;;;;;;6.45;1.38;;;8.20;89.30;;;;;;5007952;28;20050;-63
2023/11/24 12:10:42;;;;;;;4.82;1.33;;;8.10;87.30;;;;;;5003597;28;20096;-64
2023/11/24 12:13:11;;;;;;;7.55;1.60;;;8.10;87.10;;;;;;5007697;28;20427;-64
2023/11/24 12:15:37;;;;;;;9.05;1.48;;;8.10;86.50;;;;;;5008373;28;20485;-64
2023/11/24 12:18:03;;;;;;;8.43;1.67;;;8.10;85.00;;;;;;5006698;28;20041;-63
2023/11/24 12:20:31;;;;;;;6.40;1.70;;;8.10;84.90;;;;;;5007445;28;20040;-63
2023/11/24 12:22:57;;;;;;;5.85;1.45;;;8.10;84.60;;;;;;5008066;28;20281;-62
2023/11/24 12:25:25;;;;;;;6.18;1.45;;;8.10;84.00;;;;;;5007868;28;20445;-63
2023/11/24 12:27:50;;;;;;;6.03;1.50;;;8.10;84.20;;;;;;5007460;28;20516;-63
2023/11/24 12:30:18;;;;;;;7.95;1.30;;;8.10;83.10;;;;;;5007982;28;20042;-62
2023/11/24 12:32:44;;;;;;;7.35;1.67;;;8.10;82.20;;;;;;5004115;28;20111;-63
2023/11/24 12:35:11;;;;;;;6.35;1.17;;;8.10;82.40;;;;;;5007154;28;20026;-63
2023/11/24 12:37:40;;;;;;;8.25;1.70;;;8.10;81.20;;;;;;5007698;28;20065;-63
2023/11/24 12:40:09;;;;;;;8.50;1.85;;;8.10;81.20;;;;;;5007198;28;20026;-63
2023/11/24 12:42:35;;;;;;;6.15;1.33;;;8.00;81.00;;;;;;5006661;28;20552;-63
2023/11/24 12:45:02;;;;;;;5.95;1.35;;;8.00;79.90;;;;;;5007167;28;20396;-63
2023/11/24 12:47:28;;;;;;;5.53;1.30;;;8.00;80.10;;;;;;5007172;28;20072;-63
2023/11/24 12:50:00;;;;;;;8.57;1.55;;;8.00;80.30;;;;;;5006632;28;20065;-63
2023/11/24 12:52:29;;;;;;;9.88;1.90;;;8.00;79.50;;;;;;5007550;28;20033;-62
2023/11/24 12:54:55;;;;;;;11.30;2.00;;;8.00;77.50;;;;;;5007204;28;20041;-62